sensor_id;sensor_type;location;lat;lon;timestamp;P1;durP1;ratioP1;P2;durP2;ratioP2
63664;SDS011;49820;33.966;73.390;2022-11-15T06:18:10;11.35;;;8.02;;
63664;SDS011;49820;33.966;73.390;2022-11-15T06:20:59;9.93;;;7.23;;
63664;SDS011;49820;33.966;73.390;2022-11-15T06:23:47;14.00;;;7.30;;
63664;SDS011;49820;33.966;73.390;2022-11-15T06:26:35;12.80;;;7.20;;
63664;SDS011;49820;33.966;73.390;2022-11-15T06:29:22;9.60;;;7.20;;
63664;SDS011;49820;33.966;73.390;2022-11-15T06:32:10;9.90;;;6.65;;
63664;SDS011;49820;33.966;73.390;2022-11-15T06:34:58;10.70;;;6.80;;
63664;SDS011;49820;33.966;73.390;2022-11-15T06:37:47;9.93;;;6.95;;
63664;SDS011;49820;33.966;73.390;2022-11-15T06:40:34;9.33;;;6.87;;
63664;SDS011;49820;33.966;73.390;2022-11-15T06:43:24;9.77;;;6.50;;
63664;SDS011;49820;33.966;73.390;2022-11-15T06:46:11;10.15;;;6.95;;
63664;SDS011;49820;33.966;73.390;2022-11-15T06:48:59;9.38;;;6.32;;
63664;SDS011;49820;33.966;73.390;2022-11-15T06:51:54;7.50;;;5.95;;
63664;SDS011;49820;33.966;73.390;2022-11-15T06:54:41;7.63;;;5.80;;
63664;SDS011;49820;33.966;73.390;2022-11-15T06:57:29;8.45;;;6.43;;
63664;SDS011;49820;33.966;73.390;2022-11-15T07:00:17;9.82;;;6.57;;
63664;SDS011;49820;33.966;73.390;2022-11-15T07:03:07;8.40;;;6.38;;
63664;SDS011;49820;33.966;73.390;2022-11-15T07:05:55;7.75;;;6.40;;
63664;SDS011;49820;33.966;73.390;2022-11-15T07:08:51;8.20;;;6.10;;
63664;SDS011;49820;33.966;73.390;2022-11-15T07:11:39;8.17;;;6.10;;
63664;SDS011;49820;33.966;73.390;2022-11-15T07:14:26;8.00;;;6.10;;
63664;SDS011;49820;33.966;73.390;2022-11-15T07:17:14;9.40;;;6.35;;
63664;SDS011;49820;33.966;73.390;2022-11-15T07:20:02;10.05;;;6.15;;
63664;SDS011;49820;33.966;73.390;2022-11-15T07:22:50;8.30;;;6.60;;
63664;SDS011;49820;33.966;73.390;2022-11-15T07:25:37;7.80;;;5.85;;
63664;SDS011;49820;33.966;73.390;2022-11-15T07:28:26;8.82;;;6.78;;
63664;SDS011;49820;33.966;73.390;2022-11-15T07:31:14;8.60;;;6.30;;
63664;SDS011;49820;33.966;73.390;2022-11-15T07:34:02;8.00;;;6.43;;
63664;SDS011;49820;33.966;73.390;2022-11-15T07:36:50;8.40;;;6.47;;
63664;SDS011;49820;33.966;73.390;2022-11-15T07:39:38;9.45;;;6.63;;
63664;SDS011;49820;33.966;73.390;2022-11-15T07:42:26;9.57;;;6.63;;
63664;SDS011;49820;33.966;73.390;2022-11-15T07:45:31;8.60;;;6.50;;
63664;SDS011;49820;33.966;73.390;2022-11-15T07:48:22;8.95;;;7.03;;
63664;SDS011;49820;33.966;73.390;2022-11-15T07:51:16;10.10;;;7.37;;
63664;SDS011;49820;33.966;73.390;2022-11-15T07:54:04;8.73;;;7.05;;
63664;SDS011;49820;33.966;73.390;2022-11-15T07:56:52;9.10;;;6.95;;
63664;SDS011;49820;33.966;73.390;2022-11-15T07:59:46;10.57;;;7.67;;
63664;SDS011;49820;33.966;73.390;2022-11-15T08:02:34;9.23;;;7.20;;
63664;SDS011;49820;33.966;73.390;2022-11-15T08:05:22;8.98;;;6.90;;
63664;SDS011;49820;33.966;73.390;2022-11-15T08:08:11;9.57;;;7.32;;
63664;SDS011;49820;33.966;73.390;2022-11-15T08:10:58;8.23;;;6.80;;
63664;SDS011;49820;33.966;73.390;2022-11-15T08:13:47;9.67;;;7.50;;
63664;SDS011;49820;33.966;73.390;2022-11-15T08:16:35;10.55;;;6.95;;
63664;SDS011;49820;33.966;73.390;2022-11-15T08:19:22;8.32;;;6.65;;
63664;SDS011;49820;33.966;73.390;2022-11-15T08:22:10;7.63;;;6.45;;
63664;SDS011;49820;33.966;73.390;2022-11-15T08:24:58;7.93;;;6.72;;
63664;SDS011;49820;33.966;73.390;2022-11-15T08:27:46;10.65;;;6.57;;
63664;SDS011;49820;33.966;73.390;2022-11-15T08:30:35;8.38;;;6.32;;
63664;SDS011;49820;33.966;73.390;2022-11-15T08:33:29;9.20;;;6.50;;
63664;SDS011;49820;33.966;73.390;2022-11-15T08:36:18;8.00;;;6.60;;
63664;SDS011;49820;33.966;73.390;2022-11-15T08:39:09;8.50;;;6.50;;
63664;SDS011;49820;33.966;73.390;2022-11-15T08:41:59;8.35;;;6.63;;
63664;SDS011;49820;33.966;73.390;2022-11-15T08:44:46;8.98;;;6.47;;
63664;SDS011;49820;33.966;73.390;2022-11-15T08:47:34;9.55;;;6.47;;
63664;SDS011;49820;33.966;73.390;2022-11-15T08:50:22;9.50;;;6.70;;
63664;SDS011;49820;33.966;73.390;2022-11-15T08:53:10;9.55;;;6.28;;
63664;SDS011;49820;33.966;73.390;2022-11-15T08:55:58;7.95;;;6.15;;
63664;SDS011;49820;33.966;73.390;2022-11-15T08:58:45;7.72;;;5.90;;
63664;SDS011;49820;33.966;73.390;2022-11-15T09:01:33;8.70;;;6.20;;
63664;SDS011;49820;33.966;73.390;2022-11-15T09:04:21;8.98;;;6.03;;
63664;SDS011;49820;33.966;73.390;2022-11-15T09:07:10;8.13;;;6.03;;
63664;SDS011;49820;33.966;73.390;2022-11-15T09:09:59;8.80;;;6.13;;
63664;SDS011;49820;33.966;73.390;2022-11-15T09:12:47;7.57;;;5.53;;
63664;SDS011;49820;33.966;73.390;2022-11-15T09:15:36;8.45;;;6.03;;
63664;SDS011;49820;33.966;73.390;2022-11-15T09:18:23;8.45;;;5.82;;
63664;SDS011;49820;33.966;73.390;2022-11-15T09:21:12;7.80;;;5.65;;
63664;SDS011;49820;33.966;73.390;2022-11-15T09:24:00;8.55;;;6.35;;
63664;SDS011;49820;33.966;73.390;2022-11-15T09:26:49;8.98;;;6.10;;
63664;SDS011;49820;33.966;73.390;2022-11-15T09:29:38;9.70;;;7.20;;
63664;SDS011;49820;33.966;73.390;2022-11-15T09:32:29;10.50;;;6.67;;
63664;SDS011;49820;33.966;73.390;2022-11-15T09:35:23;9.57;;;6.60;;
63664;SDS011;49820;33.966;73.390;2022-11-15T09:38:11;8.00;;;6.55;;
63664;SDS011;49820;33.966;73.390;2022-11-15T09:41:13;10.55;;;6.60;;
63664;SDS011;49820;33.966;73.390;2022-11-15T09:50:50;11.10;;;7.28;;
63664;SDS011;49820;33.966;73.390;2022-11-15T09:56:32;9.70;;;6.63;;
63664;SDS011;49820;33.966;73.390;2022-11-15T10:04:29;9.93;;;6.95;;
63664;SDS011;49820;33.966;73.390;2022-11-15T10:07:06;12.68;;;7.15;;
63664;SDS011;49820;33.966;73.390;2022-11-15T10:09:54;11.00;;;7.80;;
63664;SDS011;49820;33.966;73.390;2022-11-15T10:12:40;10.85;;;7.43;;
63664;SDS011;49820;33.966;73.390;2022-11-15T10:15:16;10.60;;;7.30;;
63664;SDS011;49820;33.966;73.390;2022-11-15T10:20:42;10.90;;;7.73;;
63664;SDS011;49820;33.966;73.390;2022-11-15T10:23:17;10.05;;;6.80;;
63664;SDS011;49820;33.966;73.390;2022-11-15T10:25:53;10.52;;;6.70;;
63664;SDS011;49820;33.966;73.390;2022-11-15T10:28:32;9.18;;;6.57;;
63664;SDS011;49820;33.966;73.390;2022-11-15T10:31:02;11.07;;;6.93;;
63664;SDS011;49820;33.966;73.390;2022-11-15T10:33:36;9.35;;;7.18;;
63664;SDS011;49820;33.966;73.390;2022-11-15T10:36:14;8.95;;;6.43;;
63664;SDS011;49820;33.966;73.390;2022-11-15T10:41:19;10.00;;;7.13;;
63664;SDS011;49820;33.966;73.390;2022-11-15T10:46:35;10.13;;;6.60;;
63664;SDS011;49820;33.966;73.390;2022-11-15T10:54:28;10.90;;;6.90;;
63664;SDS011;49820;33.966;73.390;2022-11-15T10:57:26;10.45;;;7.05;;
63664;SDS011;49820;33.966;73.390;2022-11-15T11:00:00;10.13;;;6.95;;
63664;SDS011;49820;33.966;73.390;2022-11-15T11:02:58;10.48;;;6.75;;
63664;SDS011;49820;33.966;73.390;2022-11-15T11:05:36;9.47;;;6.60;;
63664;SDS011;49820;33.966;73.390;2022-11-15T11:10:55;11.80;;;6.72;;
63664;SDS011;49820;33.966;73.390;2022-11-15T11:22:03;9.95;;;6.57;;
63664;SDS011;49820;33.966;73.390;2022-11-15T11:27:48;10.95;;;6.45;;
63664;SDS011;49820;33.966;73.390;2022-11-15T11:30:28;10.45;;;6.70;;
63664;SDS011;49820;33.966;73.390;2022-11-15T11:33:37;10.18;;;6.43;;
63664;SDS011;49820;33.966;73.390;2022-11-15T11:39:42;8.75;;;6.07;;
63664;SDS011;49820;33.966;73.390;2022-11-15T11:50:53;8.30;;;5.72;;
63664;SDS011;49820;33.966;73.390;2022-11-15T11:53:37;8.57;;;5.80;;
63664;SDS011;49820;33.966;73.390;2022-11-15T12:05:22;8.70;;;5.20;;
63664;SDS011;49820;33.966;73.390;2022-11-15T12:11:07;8.02;;;4.78;;
63664;SDS011;49820;33.966;73.390;2022-11-15T12:13:38;6.97;;;4.70;;
63664;SDS011;49820;33.966;73.390;2022-11-15T12:16:11;7.60;;;4.82;;
63664;SDS011;49820;33.966;73.390;2022-11-15T12:18:44;10.05;;;5.25;;
63664;SDS011;49820;33.966;73.390;2022-11-15T12:21:21;6.93;;;4.68;;
63664;SDS011;49820;33.966;73.390;2022-11-15T12:24:09;7.00;;;4.60;;
63664;SDS011;49820;33.966;73.390;2022-11-15T12:26:56;7.55;;;4.90;;
63664;SDS011;49820;33.966;73.390;2022-11-15T12:29:54;6.72;;;4.78;;
63664;SDS011;49820;33.966;73.390;2022-11-15T12:35:02;7.95;;;5.15;;
63664;SDS011;49820;33.966;73.390;2022-11-15T12:40:27;6.47;;;4.78;;
63664;SDS011;49820;33.966;73.390;2022-11-15T12:43:34;6.95;;;5.13;;
63664;SDS011;49820;33.966;73.390;2022-11-15T12:46:10;8.93;;;5.28;;
63664;SDS011;49820;33.966;73.390;2022-11-15T12:48:53;7.80;;;4.80;;
63664;SDS011;49820;33.966;73.390;2022-11-15T13:12:53;7.50;;;5.22;;
63664;SDS011;49820;33.966;73.390;2022-11-15T13:15:35;7.95;;;5.28;;
63664;SDS011;49820;33.966;73.390;2022-11-15T13:18:32;7.97;;;4.57;;
63664;SDS011;49820;33.966;73.390;2022-11-15T13:21:18;7.20;;;4.60;;
63664;SDS011;49820;33.966;73.390;2022-11-15T13:24:12;7.32;;;5.00;;
63664;SDS011;49820;33.966;73.390;2022-11-15T13:26:44;6.75;;;4.68;;
63664;SDS011;49820;33.966;73.390;2022-11-15T13:29:15;8.00;;;4.80;;
63664;SDS011;49820;33.966;73.390;2022-11-15T13:31:46;8.05;;;5.20;;
63664;SDS011;49820;33.966;73.390;2022-11-15T13:34:29;7.88;;;4.72;;
63664;SDS011;49820;33.966;73.390;2022-11-15T13:39:51;8.50;;;5.30;;
63664;SDS011;49820;33.966;73.390;2022-11-15T13:42:20;9.63;;;5.20;;
63664;SDS011;49820;33.966;73.390;2022-11-15T13:45:12;8.75;;;5.20;;
63664;SDS011;49820;33.966;73.390;2022-11-15T13:47:44;8.15;;;5.28;;
63664;SDS011;49820;33.966;73.390;2022-11-15T13:50:15;8.50;;;5.10;;
63664;SDS011;49820;33.966;73.390;2022-11-15T13:52:45;8.35;;;5.28;;
63664;SDS011;49820;33.966;73.390;2022-11-15T13:55:20;8.45;;;5.22;;
63664;SDS011;49820;33.966;73.390;2022-11-15T13:57:56;8.70;;;5.32;;
63664;SDS011;49820;33.966;73.390;2022-11-15T14:03:10;7.93;;;4.90;;
63664;SDS011;49820;33.966;73.390;2022-11-15T14:06:06;9.80;;;5.20;;
63664;SDS011;49820;33.966;73.390;2022-11-15T14:08:57;7.28;;;4.95;;
63664;SDS011;49820;33.966;73.390;2022-11-15T14:11:33;7.70;;;5.23;;
63664;SDS011;49820;33.966;73.390;2022-11-15T14:16:37;8.95;;;4.97;;
63664;SDS011;49820;33.966;73.390;2022-11-15T14:19:34;7.78;;;4.90;;
63664;SDS011;49820;33.966;73.390;2022-11-15T14:27:45;11.15;;;7.30;;
63664;SDS011;49820;33.966;73.390;2022-11-15T14:30:43;9.38;;;5.85;;
63664;SDS011;49820;33.966;73.390;2022-11-15T14:35:54;10.00;;;6.30;;
63664;SDS011;49820;33.966;73.390;2022-11-15T14:38:25;8.73;;;5.63;;
63664;SDS011;49820;33.966;73.390;2022-11-15T14:40:56;9.88;;;5.40;;
63664;SDS011;49820;33.966;73.390;2022-11-15T14:43:29;8.95;;;6.15;;
63664;SDS011;49820;33.966;73.390;2022-11-15T14:45:59;18.73;;;12.60;;
63664;SDS011;49820;33.966;73.390;2022-11-15T14:48:28;16.88;;;11.32;;
63664;SDS011;49820;33.966;73.390;2022-11-15T14:50:58;10.77;;;7.10;;
63664;SDS011;49820;33.966;73.390;2022-11-15T14:53:28;27.65;;;16.10;;
63664;SDS011;49820;33.966;73.390;2022-11-15T14:55:59;26.88;;;17.88;;
63664;SDS011;49820;33.966;73.390;2022-11-15T14:58:28;11.18;;;7.28;;
63664;SDS011;49820;33.966;73.390;2022-11-15T15:00:58;11.05;;;6.65;;
63664;SDS011;49820;33.966;73.390;2022-11-15T15:03:28;13.15;;;7.68;;
63664;SDS011;49820;33.966;73.390;2022-11-15T15:05:58;8.98;;;5.63;;
63664;SDS011;49820;33.966;73.390;2022-11-15T15:08:27;8.60;;;5.80;;
63664;SDS011;49820;33.966;73.390;2022-11-15T15:10:57;8.05;;;5.32;;
63664;SDS011;49820;33.966;73.390;2022-11-15T15:13:28;9.45;;;5.68;;
63664;SDS011;49820;33.966;73.390;2022-11-15T15:15:58;9.70;;;5.50;;
63664;SDS011;49820;33.966;73.390;2022-11-15T15:18:28;11.93;;;5.90;;
63664;SDS011;49820;33.966;73.390;2022-11-15T15:20:58;8.55;;;6.00;;
63664;SDS011;49820;33.966;73.390;2022-11-15T15:23:31;8.05;;;5.15;;
63664;SDS011;49820;33.966;73.390;2022-11-15T15:26:01;8.77;;;5.47;;
63664;SDS011;49820;33.966;73.390;2022-11-15T15:28:31;8.45;;;5.35;;
63664;SDS011;49820;33.966;73.390;2022-11-15T15:31:01;9.52;;;5.72;;
63664;SDS011;49820;33.966;73.390;2022-11-15T15:33:32;13.30;;;6.28;;
63664;SDS011;49820;33.966;73.390;2022-11-15T15:36:02;12.73;;;6.43;;
63664;SDS011;49820;33.966;73.390;2022-11-15T15:38:32;12.80;;;5.80;;
63664;SDS011;49820;33.966;73.390;2022-11-15T15:41:02;12.18;;;6.10;;
63664;SDS011;49820;33.966;73.390;2022-11-15T15:43:31;9.33;;;5.40;;
63664;SDS011;49820;33.966;73.390;2022-11-15T15:46:01;8.90;;;5.13;;
63664;SDS011;49820;33.966;73.390;2022-11-15T15:48:30;9.10;;;5.15;;
63664;SDS011;49820;33.966;73.390;2022-11-15T15:51:02;8.82;;;5.45;;
63664;SDS011;49820;33.966;73.390;2022-11-15T15:53:41;8.23;;;5.07;;
63664;SDS011;49820;33.966;73.390;2022-11-15T15:56:14;7.32;;;4.55;;
63664;SDS011;49820;33.966;73.390;2022-11-15T15:58:43;7.17;;;4.80;;
63664;SDS011;49820;33.966;73.390;2022-11-15T16:01:13;9.10;;;4.97;;
63664;SDS011;49820;33.966;73.390;2022-11-15T16:03:42;7.68;;;4.90;;
63664;SDS011;49820;33.966;73.390;2022-11-15T16:09:08;9.52;;;5.07;;
63664;SDS011;49820;33.966;73.390;2022-11-15T16:11:44;7.65;;;4.95;;
63664;SDS011;49820;33.966;73.390;2022-11-15T16:14:23;9.23;;;5.57;;
63664;SDS011;49820;33.966;73.390;2022-11-15T16:16:52;7.40;;;4.50;;
63664;SDS011;49820;33.966;73.390;2022-11-15T16:19:22;7.90;;;5.00;;
63664;SDS011;49820;33.966;73.390;2022-11-15T16:21:51;8.07;;;5.30;;
63664;SDS011;49820;33.966;73.390;2022-11-15T16:24:22;7.35;;;5.13;;
63664;SDS011;49820;33.966;73.390;2022-11-15T16:26:51;7.40;;;5.10;;
63664;SDS011;49820;33.966;73.390;2022-11-15T16:29:24;7.20;;;4.80;;
63664;SDS011;49820;33.966;73.390;2022-11-15T16:31:53;7.22;;;4.97;;
63664;SDS011;49820;33.966;73.390;2022-11-15T16:34:23;9.67;;;5.63;;
63664;SDS011;49820;33.966;73.390;2022-11-15T16:36:57;7.72;;;5.32;;
63664;SDS011;49820;33.966;73.390;2022-11-15T16:39:28;7.93;;;4.72;;
63664;SDS011;49820;33.966;73.390;2022-11-15T16:42:00;7.32;;;5.00;;
63664;SDS011;49820;33.966;73.390;2022-11-15T16:44:31;7.88;;;5.35;;
63664;SDS011;49820;33.966;73.390;2022-11-15T16:47:03;6.85;;;4.82;;
63664;SDS011;49820;33.966;73.390;2022-11-15T16:49:37;7.50;;;4.43;;
63664;SDS011;49820;33.966;73.390;2022-11-15T16:52:13;7.70;;;4.78;;
63664;SDS011;49820;33.966;73.390;2022-11-15T16:54:50;7.10;;;5.05;;
63664;SDS011;49820;33.966;73.390;2022-11-15T16:57:25;7.93;;;4.63;;
63664;SDS011;49820;33.966;73.390;2022-11-15T16:59:55;6.75;;;4.95;;
63664;SDS011;49820;33.966;73.390;2022-11-15T17:02:25;7.33;;;4.53;;
63664;SDS011;49820;33.966;73.390;2022-11-15T17:04:54;8.38;;;4.90;;
63664;SDS011;49820;33.966;73.390;2022-11-15T17:07:25;7.47;;;4.68;;
63664;SDS011;49820;33.966;73.390;2022-11-15T17:09:55;7.72;;;4.82;;
63664;SDS011;49820;33.966;73.390;2022-11-15T17:12:24;8.52;;;4.82;;
63664;SDS011;49820;33.966;73.390;2022-11-15T17:14:54;7.97;;;5.77;;
63664;SDS011;49820;33.966;73.390;2022-11-15T17:17:23;9.00;;;6.03;;
63664;SDS011;49820;33.966;73.390;2022-11-15T17:19:53;9.23;;;6.47;;
63664;SDS011;49820;33.966;73.390;2022-11-15T17:22:23;8.10;;;4.82;;
63664;SDS011;49820;33.966;73.390;2022-11-15T17:24:53;8.50;;;5.03;;
63664;SDS011;49820;33.966;73.390;2022-11-15T17:27:24;9.65;;;5.05;;
63664;SDS011;49820;33.966;73.390;2022-11-15T17:29:53;7.13;;;4.70;;
63664;SDS011;49820;33.966;73.390;2022-11-15T17:32:23;7.50;;;4.53;;
63664;SDS011;49820;33.966;73.390;2022-11-15T17:34:55;7.88;;;4.80;;
63664;SDS011;49820;33.966;73.390;2022-11-15T17:37:24;8.65;;;5.10;;
63664;SDS011;49820;33.966;73.390;2022-11-15T17:39:54;7.88;;;5.05;;
63664;SDS011;49820;33.966;73.390;2022-11-15T17:42:23;7.85;;;5.03;;
63664;SDS011;49820;33.966;73.390;2022-11-15T17:44:54;8.02;;;5.18;;
63664;SDS011;49820;33.966;73.390;2022-11-15T17:47:23;8.10;;;5.03;;
63664;SDS011;49820;33.966;73.390;2022-11-15T17:49:52;7.40;;;5.03;;
63664;SDS011;49820;33.966;73.390;2022-11-15T17:52:21;10.88;;;5.60;;
63664;SDS011;49820;33.966;73.390;2022-11-15T17:54:53;8.50;;;5.07;;
63664;SDS011;49820;33.966;73.390;2022-11-15T17:57:22;8.05;;;5.32;;
63664;SDS011;49820;33.966;73.390;2022-11-15T17:59:52;23.00;;;18.60;;
63664;SDS011;49820;33.966;73.390;2022-11-15T18:02:23;14.35;;;10.07;;
63664;SDS011;49820;33.966;73.390;2022-11-15T18:04:55;9.02;;;5.63;;
63664;SDS011;49820;33.966;73.390;2022-11-15T18:07:29;9.20;;;5.82;;
63664;SDS011;49820;33.966;73.390;2022-11-15T18:09:58;7.13;;;4.97;;
63664;SDS011;49820;33.966;73.390;2022-11-15T18:12:28;7.60;;;4.87;;
63664;SDS011;49820;33.966;73.390;2022-11-15T18:15:11;7.55;;;4.80;;
63664;SDS011;49820;33.966;73.390;2022-11-15T18:17:41;8.85;;;5.35;;
63664;SDS011;49820;33.966;73.390;2022-11-15T18:20:10;7.55;;;5.20;;
63664;SDS011;49820;33.966;73.390;2022-11-15T18:22:39;8.73;;;5.13;;
63664;SDS011;49820;33.966;73.390;2022-11-15T18:25:09;9.55;;;5.78;;
63664;SDS011;49820;33.966;73.390;2022-11-15T18:27:43;8.05;;;4.80;;
63664;SDS011;49820;33.966;73.390;2022-11-15T18:30:12;7.28;;;5.10;;
63664;SDS011;49820;33.966;73.390;2022-11-15T18:32:42;9.13;;;5.25;;
63664;SDS011;49820;33.966;73.390;2022-11-15T18:35:11;9.43;;;5.45;;
63664;SDS011;49820;33.966;73.390;2022-11-15T18:37:41;7.72;;;5.10;;
63664;SDS011;49820;33.966;73.390;2022-11-15T18:40:11;8.63;;;5.03;;
63664;SDS011;49820;33.966;73.390;2022-11-15T18:42:40;9.30;;;5.22;;
63664;SDS011;49820;33.966;73.390;2022-11-15T18:45:10;8.13;;;4.97;;
63664;SDS011;49820;33.966;73.390;2022-11-15T18:47:39;9.57;;;5.18;;
63664;SDS011;49820;33.966;73.390;2022-11-15T18:50:08;8.95;;;5.38;;
63664;SDS011;49820;33.966;73.390;2022-11-15T18:52:38;8.00;;;5.25;;
63664;SDS011;49820;33.966;73.390;2022-11-15T18:55:07;8.27;;;5.07;;
63664;SDS011;49820;33.966;73.390;2022-11-15T18:57:37;7.93;;;4.80;;
63664;SDS011;49820;33.966;73.390;2022-11-15T19:00:10;9.23;;;5.00;;
63664;SDS011;49820;33.966;73.390;2022-11-15T19:02:40;7.40;;;5.03;;
63664;SDS011;49820;33.966;73.390;2022-11-15T19:05:09;7.93;;;4.90;;
63664;SDS011;49820;33.966;73.390;2022-11-15T19:07:42;7.63;;;5.22;;
63664;SDS011;49820;33.966;73.390;2022-11-15T19:10:18;8.27;;;4.82;;
63664;SDS011;49820;33.966;73.390;2022-11-15T19:12:48;8.35;;;5.30;;
63664;SDS011;49820;33.966;73.390;2022-11-15T19:15:18;8.60;;;5.28;;
63664;SDS011;49820;33.966;73.390;2022-11-15T19:17:47;6.57;;;4.80;;
63664;SDS011;49820;33.966;73.390;2022-11-15T19:20:18;8.07;;;4.95;;
63664;SDS011;49820;33.966;73.390;2022-11-15T19:22:48;6.93;;;4.88;;
63664;SDS011;49820;33.966;73.390;2022-11-15T19:25:17;9.15;;;4.80;;
63664;SDS011;49820;33.966;73.390;2022-11-15T19:27:46;7.03;;;4.80;;
63664;SDS011;49820;33.966;73.390;2022-11-15T19:30:15;7.60;;;5.07;;
63664;SDS011;49820;33.966;73.390;2022-11-15T19:32:45;9.10;;;5.32;;
63664;SDS011;49820;33.966;73.390;2022-11-15T19:35:14;7.65;;;5.13;;
63664;SDS011;49820;33.966;73.390;2022-11-15T19:37:43;8.70;;;5.05;;
63664;SDS011;49820;33.966;73.390;2022-11-15T19:40:13;7.25;;;4.72;;
63664;SDS011;49820;33.966;73.390;2022-11-15T19:42:42;8.70;;;5.72;;
63664;SDS011;49820;33.966;73.390;2022-11-15T19:45:12;7.13;;;4.90;;
63664;SDS011;49820;33.966;73.390;2022-11-15T19:47:41;10.53;;;5.17;;
63664;SDS011;49820;33.966;73.390;2022-11-15T19:50:10;7.95;;;4.93;;
63664;SDS011;49820;33.966;73.390;2022-11-15T19:52:39;7.70;;;4.88;;
63664;SDS011;49820;33.966;73.390;2022-11-15T19:55:09;8.00;;;5.27;;
63664;SDS011;49820;33.966;73.390;2022-11-15T19:57:38;7.47;;;5.00;;
63664;SDS011;49820;33.966;73.390;2022-11-15T20:00:08;7.80;;;4.85;;
63664;SDS011;49820;33.966;73.390;2022-11-15T20:02:37;6.88;;;4.50;;
63664;SDS011;49820;33.966;73.390;2022-11-15T20:05:07;7.20;;;4.85;;
63664;SDS011;49820;33.966;73.390;2022-11-15T20:07:46;9.07;;;4.80;;
63664;SDS011;49820;33.966;73.390;2022-11-15T20:10:16;8.27;;;5.13;;
63664;SDS011;49820;33.966;73.390;2022-11-15T20:12:47;8.00;;;4.90;;
63664;SDS011;49820;33.966;73.390;2022-11-15T20:15:16;8.35;;;4.88;;
63664;SDS011;49820;33.966;73.390;2022-11-15T20:17:46;6.78;;;5.10;;
63664;SDS011;49820;33.966;73.390;2022-11-15T20:20:15;7.53;;;4.80;;
63664;SDS011;49820;33.966;73.390;2022-11-15T20:22:44;8.93;;;5.00;;
63664;SDS011;49820;33.966;73.390;2022-11-15T20:25:14;8.43;;;5.10;;
63664;SDS011;49820;33.966;73.390;2022-11-15T20:27:44;7.00;;;4.55;;
63664;SDS011;49820;33.966;73.390;2022-11-15T20:30:13;8.20;;;4.78;;
63664;SDS011;49820;33.966;73.390;2022-11-15T20:32:42;7.18;;;4.93;;
63664;SDS011;49820;33.966;73.390;2022-11-15T20:35:12;7.97;;;5.38;;
63664;SDS011;49820;33.966;73.390;2022-11-15T20:37:41;7.97;;;5.15;;
63664;SDS011;49820;33.966;73.390;2022-11-15T20:40:11;8.23;;;5.10;;
63664;SDS011;49820;33.966;73.390;2022-11-15T20:42:40;7.27;;;4.83;;
63664;SDS011;49820;33.966;73.390;2022-11-15T20:45:10;8.38;;;5.50;;
63664;SDS011;49820;33.966;73.390;2022-11-15T20:47:39;8.98;;;5.15;;
63664;SDS011;49820;33.966;73.390;2022-11-15T20:50:09;11.20;;;5.00;;
63664;SDS011;49820;33.966;73.390;2022-11-15T20:52:58;8.13;;;5.05;;
63664;SDS011;49820;33.966;73.390;2022-11-15T20:55:27;7.70;;;5.13;;
63664;SDS011;49820;33.966;73.390;2022-11-15T20:57:57;7.60;;;5.10;;
63664;SDS011;49820;33.966;73.390;2022-11-15T21:00:26;7.85;;;4.80;;
63664;SDS011;49820;33.966;73.390;2022-11-15T21:02:55;7.88;;;4.88;;
63664;SDS011;49820;33.966;73.390;2022-11-15T21:05:24;8.85;;;4.95;;
63664;SDS011;49820;33.966;73.390;2022-11-15T21:07:54;8.38;;;5.22;;
63664;SDS011;49820;33.966;73.390;2022-11-15T21:10:23;8.95;;;5.35;;
63664;SDS011;49820;33.966;73.390;2022-11-15T21:13:11;7.22;;;5.13;;
63664;SDS011;49820;33.966;73.390;2022-11-15T21:15:40;8.25;;;4.97;;
63664;SDS011;49820;33.966;73.390;2022-11-15T21:18:10;8.30;;;5.07;;
63664;SDS011;49820;33.966;73.390;2022-11-15T21:20:39;8.85;;;5.30;;
63664;SDS011;49820;33.966;73.390;2022-11-15T21:23:09;7.03;;;4.80;;
63664;SDS011;49820;33.966;73.390;2022-11-15T21:25:40;7.72;;;4.95;;
63664;SDS011;49820;33.966;73.390;2022-11-15T21:28:15;8.10;;;4.85;;
63664;SDS011;49820;33.966;73.390;2022-11-15T21:30:52;7.97;;;5.07;;
63664;SDS011;49820;33.966;73.390;2022-11-15T21:33:24;7.78;;;5.60;;
63664;SDS011;49820;33.966;73.390;2022-11-15T21:35:58;6.88;;;4.30;;
63664;SDS011;49820;33.966;73.390;2022-11-15T21:38:27;8.48;;;4.78;;
63664;SDS011;49820;33.966;73.390;2022-11-15T21:40:57;7.65;;;5.03;;
63664;SDS011;49820;33.966;73.390;2022-11-15T21:43:31;8.30;;;5.30;;
63664;SDS011;49820;33.966;73.390;2022-11-15T21:46:02;7.85;;;5.32;;
63664;SDS011;49820;33.966;73.390;2022-11-15T21:48:33;7.95;;;4.90;;
63664;SDS011;49820;33.966;73.390;2022-11-15T21:51:04;9.38;;;5.65;;
63664;SDS011;49820;33.966;73.390;2022-11-15T21:53:35;9.90;;;5.43;;
63664;SDS011;49820;33.966;73.390;2022-11-15T21:56:04;9.85;;;5.85;;
63664;SDS011;49820;33.966;73.390;2022-11-15T21:58:34;8.48;;;5.25;;
63664;SDS011;49820;33.966;73.390;2022-11-15T22:01:04;9.93;;;5.68;;
63664;SDS011;49820;33.966;73.390;2022-11-15T22:03:53;8.07;;;5.13;;
63664;SDS011;49820;33.966;73.390;2022-11-15T22:06:22;7.75;;;4.90;;
63664;SDS011;49820;33.966;73.390;2022-11-15T22:08:52;9.52;;;5.63;;
63664;SDS011;49820;33.966;73.390;2022-11-15T22:11:21;9.80;;;5.72;;
63664;SDS011;49820;33.966;73.390;2022-11-15T22:13:50;8.45;;;5.50;;
63664;SDS011;49820;33.966;73.390;2022-11-15T22:16:19;8.32;;;5.43;;
63664;SDS011;49820;33.966;73.390;2022-11-15T22:18:49;8.63;;;5.40;;
63664;SDS011;49820;33.966;73.390;2022-11-15T22:21:20;9.13;;;5.40;;
63664;SDS011;49820;33.966;73.390;2022-11-15T22:23:49;10.20;;;5.38;;
63664;SDS011;49820;33.966;73.390;2022-11-15T22:26:19;10.98;;;5.35;;
63664;SDS011;49820;33.966;73.390;2022-11-15T22:28:50;8.00;;;5.55;;
63664;SDS011;49820;33.966;73.390;2022-11-15T22:31:20;11.30;;;6.88;;
63664;SDS011;49820;33.966;73.390;2022-11-15T22:33:49;11.47;;;6.60;;
63664;SDS011;49820;33.966;73.390;2022-11-15T22:36:18;12.70;;;6.68;;
63664;SDS011;49820;33.966;73.390;2022-11-15T22:38:48;10.98;;;7.32;;
63664;SDS011;49820;33.966;73.390;2022-11-15T22:41:17;12.00;;;6.53;;
63664;SDS011;49820;33.966;73.390;2022-11-15T22:43:46;10.05;;;6.60;;
63664;SDS011;49820;33.966;73.390;2022-11-15T22:46:16;10.70;;;6.97;;
63664;SDS011;49820;33.966;73.390;2022-11-15T22:48:45;10.82;;;6.53;;
63664;SDS011;49820;33.966;73.390;2022-11-15T22:51:14;9.00;;;5.95;;
63664;SDS011;49820;33.966;73.390;2022-11-15T22:53:44;10.63;;;6.55;;
63664;SDS011;49820;33.966;73.390;2022-11-15T22:56:13;10.70;;;6.03;;
63664;SDS011;49820;33.966;73.390;2022-11-15T22:58:46;10.37;;;5.07;;
63664;SDS011;49820;33.966;73.390;2022-11-15T23:01:19;9.32;;;6.07;;
63664;SDS011;49820;33.966;73.390;2022-11-15T23:03:50;10.07;;;6.53;;
63664;SDS011;49820;33.966;73.390;2022-11-15T23:06:20;9.75;;;6.30;;
63664;SDS011;49820;33.966;73.390;2022-11-15T23:08:49;10.50;;;7.18;;
63664;SDS011;49820;33.966;73.390;2022-11-15T23:11:19;12.90;;;7.00;;
63664;SDS011;49820;33.966;73.390;2022-11-15T23:14:07;11.73;;;7.20;;
63664;SDS011;49820;33.966;73.390;2022-11-15T23:16:36;12.27;;;7.13;;
63664;SDS011;49820;33.966;73.390;2022-11-15T23:19:11;12.60;;;7.05;;
63664;SDS011;49820;33.966;73.390;2022-11-15T23:21:41;11.10;;;6.70;;
63664;SDS011;49820;33.966;73.390;2022-11-15T23:24:31;11.13;;;6.00;;
63664;SDS011;49820;33.966;73.390;2022-11-15T23:27:02;10.00;;;5.15;;
63664;SDS011;49820;33.966;73.390;2022-11-15T23:29:37;8.55;;;5.18;;
63664;SDS011;49820;33.966;73.390;2022-11-15T23:32:25;8.02;;;4.78;;
63664;SDS011;49820;33.966;73.390;2022-11-15T23:35:12;7.88;;;4.93;;